Time;durP1;ratioP1;P1;durP2;ratioP2;P2;SDS_P1;SDS_P2;PMS_P1;PMS_P2;Temp;Humidity;BMP_temperature;BMP_pressure;BME280_temperature;BME280_humidity;BME280_pressure;Samples;Min_cycle;Max_cycle;Signal;HPM_P1;HPM_P2
2022/06/29 06:10:25;;;;;;;107.53;12.00;;;;;;;18.68;71.22;96387.84;2101986;27;20583;-59
2022/06/29 06:11:27;;;;;;;107.68;12.18;;;;;;;18.97;70.77;96392.59;2100832;28;20202;-59
2022/06/29 06:12:28;;;;;;;109.18;13.00;;;;;;;19.20;69.81;96395.13;2079997;28;20201;-59
2022/06/29 06:13:30;;;;;;;108.72;11.20;;;;;;;19.28;69.38;96390.03;2090535;28;20196;-59
2022/06/29 06:14:31;;;;;;;104.28;8.23;;;;;;;19.22;69.17;96387.88;2094607;28;20195;-58
2022/06/29 06:15:33;;;;;;;119.25;16.20;;;;;;;19.18;69.63;96392.59;2085161;28;20201;-58
2022/06/29 06:16:35;;;;;;;111.15;11.77;;;;;;;19.44;69.29;96392.22;2084673;28;20223;-59
2022/06/29 06:17:42;;;;;;;111.57;15.10;;;;;;;19.61;68.30;96396.06;2082893;28;20830;-59
2022/06/29 06:18:43;;;;;;;102.88;13.63;;;;;;;19.30;68.46;96379.28;2096483;28;20215;-59
2022/06/29 06:19:45;;;;;;;108.07;23.13;;;;;;;19.16;68.81;96391.91;2088623;28;20267;-59
2022/06/29 06:42:19;;;;;;;104.97;6.68;;;;;;;21.12;62.02;96397.09;2076333;28;20200;-59
2022/06/29 06:43:21;;;;;;;104.63;6.47;;;;;;;21.16;62.24;96401.13;2086110;28;20207;-60
2022/06/29 06:44:22;;;;;;;104.75;7.10;;;;;;;21.30;61.63;96399.88;2083792;28;20660;-60
2022/06/29 06:45:24;;;;;;;104.30;6.32;;;;;;;21.30;61.91;96381.28;2070341;28;20194;-59
2022/06/29 06:46:28;;;;;;;102.72;8.82;;;;;;;21.41;61.82;96399.72;2069769;28;20561;-59
2022/06/29 06:47:29;;;;;;;104.32;9.40;;;;;;;21.31;61.21;96385.63;2069870;28;20548;-60
2022/06/29 06:48:31;;;;;;;105.07;11.63;;;;;;;21.33;61.20;96397.78;2069817;28;20205;-60
2022/06/29 06:49:33;;;;;;;107.43;8.88;;;;;;;20.75;62.88;96403.06;2070358;28;20208;-59
2022/06/29 07:09:26;;;;;;;106.32;7.22;;;;;;;21.91;60.00;96369.41;2097533;28;20589;-59
2022/06/29 07:10:28;;;;;;;105.88;9.95;;;;;;;21.95;59.52;96372.59;2100769;28;20199;-59
2022/06/29 07:11:29;;;;;;;107.25;11.52;;;;;;;21.94;59.49;96392.19;2099612;28;20199;-59
2022/06/29 07:12:31;;;;;;;113.18;20.98;;;;;;;21.84;59.81;96384.28;2091868;28;20195;-59
2022/06/29 07:13:33;;;;;;;107.32;13.27;;;;;;;22.06;59.58;96384.88;2107181;28;20190;-59
2022/06/29 07:14:34;;;;;;;106.43;14.25;;;;;;;21.88;60.48;96390.97;2102006;28;20207;-59
2022/06/29 07:15:36;;;;;;;108.75;11.70;;;;;;;21.92;60.27;96396.84;2093416;28;20226;-59
2022/06/29 07:16:38;;;;;;;106.43;9.38;;;;;;;22.03;60.00;96388.69;2094457;28;20204;-58
2022/06/29 07:17:40;;;;;;;117.57;28.52;;;;;;;22.20;59.27;96395.03;2088377;28;20230;-60
2022/06/29 07:18:41;;;;;;;118.70;31.13;;;;;;;22.28;59.11;96375.66;2105635;28;20242;-60
2022/06/29 07:19:44;;;;;;;115.85;29.85;;;;;;;22.05;59.23;96392.00;2097292;28;20196;-59
2022/06/29 07:20:49;;;;;;;130.48;32.25;;;;;;;21.98;60.38;96394.41;2087704;28;20200;-59
2022/06/29 07:21:51;;;;;;;116.82;18.60;;;;;;;22.12;60.38;96393.09;2090750;28;20551;-59
2022/06/29 07:37:22;;;;;;;112.60;6.68;;;;;;;24.02;55.58;96394.03;2104032;27;21276;-58
2022/06/29 07:38:24;;;;;;;110.80;7.43;;;;;;;23.97;55.60;96402.50;2101647;28;20206;-58
2022/06/29 07:39:26;;;;;;;110.80;7.93;;;;;;;24.06;55.66;96403.38;2101256;28;20580;-59
2022/06/29 07:40:36;;;;;;;109.07;8.00;;;;;;;24.20;54.97;96404.63;2094436;28;20554;-58
2022/06/29 07:41:38;;;;;;;109.78;9.73;;;;;;;24.27;54.90;96402.97;2095233;28;20210;-59
2022/06/29 07:42:39;;;;;;;115.05;12.77;;;;;;;24.38;54.18;96401.84;2088349;28;20226;-59
2022/06/29 07:43:40;;;;;;;112.22;14.68;;;;;;;24.23;53.94;96399.81;2102838;28;20195;-59
2022/06/29 07:44:42;;;;;;;115.55;16.15;;;;;;;24.51;53.36;96404.91;2099181;28;20226;-59
2022/06/29 07:45:43;;;;;;;115.75;15.70;;;;;;;24.36;53.94;96396.69;2095082;28;20474;-59
2022/06/29 07:46:45;;;;;;;113.70;15.50;;;;;;;24.39;54.50;96404.38;2095093;28;20310;-59
2022/06/29 07:47:48;;;;;;;143.23;34.20;;;;;;;24.43;54.33;96410.22;2094184;28;20245;-58
2022/06/29 07:48:50;;;;;;;136.38;24.35;;;;;;;24.62;53.90;96415.28;2094995;28;20203;-59
2022/06/29 07:49:51;;;;;;;110.32;9.52;;;;;;;24.59;53.53;96406.75;2095087;28;20559;-59
2022/06/29 07:50:53;;;;;;;117.43;12.15;;;;;;;24.62;52.82;96403.78;2095027;28;20192;-58
2022/06/29 07:51:55;;;;;;;113.45;10.20;;;;;;;24.16;53.27;96412.09;2095126;28;20239;-58
2022/06/29 07:52:56;;;;;;;113.03;7.35;;;;;;;23.39;55.97;96409.25;2090597;28;20783;-58
2022/06/29 07:53:58;;;;;;;112.72;7.93;;;;;;;23.28;55.54;96408.50;2102401;28;20233;-58
2022/06/29 07:55:00;;;;;;;118.20;8.23;;;;;;;23.04;55.53;96398.44;2096897;28;20200;-58
2022/06/29 07:56:01;;;;;;;111.38;10.45;;;;;;;22.72;56.53;96399.81;2094997;28;20211;-58
2022/06/29 07:57:03;;;;;;;121.88;11.38;;;;;;;23.20;56.28;96413.78;2095331;28;20208;-62
2022/06/29 07:58:21;;;;;;;112.78;11.88;;;;;;;23.41;55.77;96407.28;2094620;28;20670;-63
2022/06/29 07:59:22;;;;;;;113.63;12.00;;;;;;;23.54;55.48;96409.53;2095010;28;20199;-63
2022/06/29 08:00:26;;;;;;;111.95;9.88;;;;;;;23.80;54.48;96406.88;2095051;28;20813;-64
2022/06/29 08:01:27;;;;;;;111.97;9.93;;;;;;;23.51;54.66;96402.69;2095028;28;20191;-62
2022/06/29 08:02:29;;;;;;;111.95;8.70;;;;;;;24.20;53.27;96399.28;2086985;28;20191;-62
2022/06/29 08:03:31;;;;;;;109.78;6.28;;;;;;;24.52;51.53;96398.56;2093882;28;20295;-62
2022/06/29 08:04:33;;;;;;;110.43;6.25;;;;;;;24.70;51.23;96390.47;2094208;28;20187;-62
2022/06/29 08:23:33;;;;;;;116.82;7.00;;;;;;;23.90;52.50;96404.13;2089744;28;20558;-62
2022/06/29 08:24:34;;;;;;;111.25;7.65;;;;;;;23.95;53.02;96386.66;2087027;28;20538;-62
2022/06/29 08:25:36;;;;;;;112.15;6.20;;;;;;;24.04;52.64;96400.88;2090402;28;20200;-62
2022/06/29 08:26:39;;;;;;;109.22;5.82;;;;;;;24.08;51.84;96402.22;2087250;28;20196;-63
2022/06/29 08:28:02;;;;;;;110.72;6.93;;;;;;;24.11;52.21;96398.41;2071971;28;20236;-62
2022/06/29 08:29:03;;;;;;;108.95;5.85;;;;;;;24.39;51.79;96392.84;2080598;28;20200;-63
2022/06/29 08:30:06;;;;;;;109.03;6.72;;;;;;;24.50;51.76;96403.22;2075482;28;20204;-63
2022/06/29 08:31:07;;;;;;;110.53;6.40;;;;;;;24.54;50.66;96401.91;2075371;28;20198;-63
2022/06/29 08:32:09;;;;;;;114.82;5.53;;;;;;;24.68;51.23;96399.66;2075055;28;20739;-63
2022/06/29 08:33:10;;;;;;;112.00;5.30;;;;;;;24.37;51.34;96403.69;2070981;28;20239;-61
2022/06/29 08:34:21;;;;;;;112.20;5.90;;;;;;;24.27;52.41;96400.31;2077877;28;20356;-62
2022/06/29 08:35:23;;;;;;;111.43;6.20;;;;;;;24.38;52.68;96401.84;2074325;28;20212;-62
2022/06/29 08:36:25;;;;;;;118.15;7.18;;;;;;;24.77;51.59;96398.66;2074275;28;20194;-62
2022/06/29 08:37:47;;;;;;;107.63;4.70;;;;;;;25.01;50.86;96407.72;2073972;28;20248;-62
2022/06/29 08:38:48;;;;;;;108.25;5.22;;;;;;;25.13;50.28;96387.72;2075767;28;20205;-62
2022/06/29 08:39:50;;;;;;;111.18;6.30;;;;;;;25.03;50.58;96403.88;2073273;28;20248;-63
2022/06/29 08:40:53;;;;;;;109.22;6.38;;;;;;;24.59;51.00;96382.75;2074139;28;20208;-63
2022/06/29 08:41:59;;;;;;;116.10;6.32;;;;;;;24.56;51.23;96396.44;2073583;28;20190;-62
2022/06/29 08:43:01;;;;;;;110.75;4.85;;;;;;;24.72;51.18;96395.66;2070891;28;20240;-63
2022/06/29 08:44:08;;;;;;;109.13;4.30;;;;;;;24.67;51.10;96403.31;2082131;28;20624;-64
2022/06/29 08:45:11;;;;;;;108.25;4.70;;;;;;;24.71;51.16;96391.31;2074568;28;20197;-62
2022/06/29 08:46:13;;;;;;;110.35;4.47;;;;;;;24.78;50.86;96389.66;2075704;28;20215;-62
2022/06/29 08:47:16;;;;;;;109.63;4.60;;;;;;;24.70;51.26;96398.47;2063312;28;20778;-62
2022/06/29 08:48:17;;;;;;;107.22;5.95;;;;;;;24.98;50.35;96406.22;2081596;28;20192;-62
2022/06/29 08:49:19;;;;;;;109.40;7.70;;;;;;;24.93;50.66;96405.88;2080147;28;20208;-62
2022/06/29 08:50:20;;;;;;;115.47;17.23;;;;;;;24.86;49.82;96403.03;2072732;28;20555;-62
2022/06/29 08:51:23;;;;;;;108.88;8.05;;;;;;;24.68;50.79;96396.97;2070305;28;20870;-63
2022/06/29 08:52:28;;;;;;;112.35;10.82;;;;;;;25.16;49.63;96402.56;2061917;28;20208;-62
2022/06/29 08:53:32;;;;;;;114.03;14.82;;;;;;;25.06;48.89;96400.06;2082555;28;20189;-62
2022/06/29 08:54:42;;;;;;;115.45;14.90;;;;;;;25.36;49.07;96400.44;2081930;28;20688;-62
2022/06/29 08:55:46;;;;;;;111.65;7.32;;;;;;;25.60;49.62;96404.94;2074229;28;20198;-62
2022/06/29 08:56:48;;;;;;;112.10;8.55;;;;;;;25.61;49.16;96405.75;2075098;28;20205;-62
2022/06/29 08:57:51;;;;;;;109.75;8.02;;;;;;;25.85;48.97;96404.88;2076850;28;20228;-63
2022/06/29 08:58:52;;;;;;;110.13;12.32;;;;;;;25.82;48.86;96406.06;2076343;28;20197;-62
2022/06/29 08:59:54;;;;;;;109.82;10.20;;;;;;;26.00;48.08;96407.69;2073334;28;20200;-63
2022/06/29 09:01:01;;;;;;;109.40;7.70;;;;;;;26.40;46.26;96405.91;2076112;28;20202;-63
2022/06/29 09:02:04;;;;;;;107.03;5.70;;;;;;;26.21;46.29;96399.97;2073570;28;20660;-62
2022/06/29 09:03:06;;;;;;;110.70;7.60;;;;;;;26.42;47.14;96406.56;2070411;28;20216;-62
2022/06/29 09:04:07;;;;;;;115.05;7.60;;;;;;;26.26;47.40;96399.44;2077773;28;20197;-63
2022/06/29 09:05:09;;;;;;;106.88;5.47;;;;;;;26.56;46.25;96400.50;2070792;28;20751;-64
2022/06/29 09:06:10;;;;;;;109.85;6.40;;;;;;;26.49;46.42;96404.88;2074295;28;20380;-64
2022/06/29 09:07:12;;;;;;;108.63;6.50;;;;;;;26.30;47.11;96389.25;2073161;28;20209;-64
2022/06/29 09:08:17;;;;;;;104.78;6.15;;;;;;;26.71;46.79;96400.56;2078862;28;20220;-64
2022/06/29 09:09:19;;;;;;;103.43;5.00;;;;;;;27.00;45.45;96401.75;2080691;28;20196;-65
2022/06/29 09:10:24;;;;;;;106.15;4.93;;;;;;;26.76;45.80;96394.72;2072723;28;20224;-64
2022/06/29 09:11:31;;;;;;;106.30;4.50;;;;;;;26.40;46.43;96400.56;2072521;28;20205;-64
2022/06/29 09:12:32;;;;;;;109.22;4.93;;;;;;;26.60;46.16;96397.44;2067125;28;20233;-65
2022/06/29 09:13:34;;;;;;;113.15;9.25;;;;;;;26.33;45.62;96391.56;2081076;28;20185;-64
2022/06/29 09:14:36;;;;;;;106.45;4.95;;;;;;;25.51;48.08;96392.56;2079048;28;20194;-64
2022/06/29 09:15:39;;;;;;;104.80;4.30;;;;;;;26.02;47.46;96393.13;2075143;28;20228;-65
2022/06/29 09:17:01;;;;;;;109.57;4.68;;;;;;;25.76;47.79;96393.34;2072547;28;20205;-64
2022/06/29 09:18:21;;;;;;;105.22;4.70;;;;;;;26.20;47.35;96390.25;2074635;28;20636;-65
2022/06/29 09:19:44;;;;;;;106.45;4.93;;;;;;;26.72;46.30;96398.72;2075282;28;20201;-64
2022/06/29 09:20:46;;;;;;;107.32;4.60;;;;;;;26.83;45.55;96386.78;2075284;28;20201;-64
2022/06/29 09:21:49;;;;;;;105.45;5.78;;;;;;;26.73;44.94;96362.94;2073333;28;20281;-65
2022/06/29 09:22:52;;;;;;;112.18;5.22;;;;;;;26.88;44.65;96392.44;2068387;28;20248;-64
2022/06/29 09:23:54;;;;;;;107.15;4.85;;;;;;;27.38;44.32;96396.44;2081220;28;20205;-64
2022/06/29 09:24:55;;;;;;;105.18;4.97;;;;;;;26.81;45.06;96396.88;2077461;28;20194;-64
2022/06/29 09:26:16;;;;;;;106.07;5.07;;;;;;;26.56;46.09;96400.50;2073097;28;20628;-64
2022/06/29 09:27:18;;;;;;;105.93;4.82;;;;;;;26.69;46.26;96402.59;2063768;28;20204;-64
2022/06/29 09:28:27;;;;;;;106.63;5.80;;;;;;;26.64;45.76;96399.63;2077695;28;20193;-64
2022/06/29 09:29:31;;;;;;;107.78;6.68;;;;;;;26.34;46.19;96401.25;2075635;28;20197;-64
2022/06/29 09:30:36;;;;;;;110.10;5.05;;;;;;;26.58;45.90;96399.50;2072318;28;20194;-64
2022/06/29 09:31:38;;;;;;;105.70;6.70;;;;;;;26.54;45.63;96401.69;2073904;28;20279;-65
2022/06/29 09:32:39;;;;;;;108.80;4.40;;;;;;;26.92;45.75;96398.28;2067567;28;20711;-64
2022/06/29 09:33:41;;;;;;;105.50;5.22;;;;;;;27.17;45.23;96410.53;2081866;28;20193;-64
2022/06/29 09:34:46;;;;;;;105.68;7.35;;;;;;;27.31;45.14;96406.25;2073798;28;20603;-65
2022/06/29 09:36:04;;;;;;;104.78;6.32;;;;;;;27.29;44.41;96381.44;2068549;28;20756;-65
2022/06/29 09:37:09;;;;;;;107.25;8.73;;;;;;;27.11;44.00;96397.00;2068227;28;20228;-65
2022/06/29 09:38:25;;;;;;;107.50;9.98;;;;;;;27.30;44.02;96398.34;2066457;28;20771;-64
2022/06/29 09:39:37;;;;;;;110.50;11.82;;;;;;;27.75;43.67;96402.00;2068766;28;20744;-64
2022/06/29 09:41:16;;;;;;;107.65;10.23;;;;;;;28.18;43.17;96396.06;2069673;28;20193;-64
2022/06/29 09:42:20;;;;;;;109.65;8.73;;;;;;;28.36;42.60;96403.72;2060824;28;20651;-64
2022/06/29 09:43:22;;;;;;;107.28;9.52;;;;;;;28.40;42.27;96393.47;2076004;28;20201;-64
2022/06/29 09:44:24;;;;;;;109.45;6.70;;;;;;;28.45;43.36;96399.09;2067392;28;20202;-64
2022/06/29 09:45:25;;;;;;;107.03;7.00;;;;;;;28.72;43.01;96404.81;2070963;28;20653;-64
2022/06/29 09:46:27;;;;;;;107.22;9.80;;;;;;;28.79;42.53;96395.81;2067160;28;20209;-64
2022/06/29 09:47:29;;;;;;;109.55;17.05;;;;;;;28.40;42.51;96399.66;2059949;28;20199;-64
2022/06/29 09:48:33;;;;;;;115.15;14.80;;;;;;;28.22;43.58;96391.16;2074063;28;20545;-65
2022/06/29 09:49:36;;;;;;;109.97;14.57;;;;;;;28.36;43.22;96395.69;2071437;28;20209;-64
2022/06/29 09:50:38;;;;;;;111.40;14.75;;;;;;;28.85;42.30;96402.28;2071497;28;20202;-65
2022/06/29 09:51:40;;;;;;;115.47;19.80;;;;;;;29.03;40.67;96396.47;2069756;28;20208;-65
2022/06/29 09:52:45;;;;;;;117.27;29.07;;;;;;;28.41;42.60;96405.88;2057268;28;20853;-65
2022/06/29 09:53:49;;;;;;;121.72;23.67;;;;;;;28.74;43.01;96406.28;2067186;28;20499;-65
2022/06/29 09:54:58;;;;;;;118.63;27.83;;;;;;;28.88;41.02;96409.13;2071519;28;20194;-65
2022/06/29 09:56:03;;;;;;;114.70;24.70;;;;;;;28.74;41.82;96400.91;2068564;28;20198;-65
2022/06/29 09:57:07;;;;;;;117.63;22.20;;;;;;;28.89;42.51;96395.50;2064360;28;20241;-64
2022/06/29 09:58:10;;;;;;;126.60;31.27;;;;;;;29.20;40.94;96407.78;2067243;28;20237;-64
2022/06/29 09:59:18;;;;;;;114.70;19.27;;;;;;;28.89;41.27;96400.88;2064419;28;20432;-65
2022/06/29 10:22:15;;;;;;;118.18;12.32;;;;;;;26.00;33.35;96391.66;2076063;28;20562;-63
2022/06/29 10:23:45;;;;;;;117.20;15.15;;;;;;;26.28;48.17;96402.78;2086414;28;20617;-64
2022/06/29 10:25:09;;;;;;;111.30;13.65;;;;;;;25.80;48.46;96388.50;2082251;28;20193;-64
2022/06/29 10:26:27;;;;;;;111.82;10.00;;;;;;;26.30;48.89;96399.94;2077870;28;20570;-64
2022/06/29 10:27:28;;;;;;;108.22;9.35;;;;;;;26.02;49.30;96403.84;2070503;28;20196;-64
2022/06/29 10:28:30;;;;;;;107.32;8.00;;;;;;;26.20;39.59;96398.28;2086159;28;20200;-64
2022/06/29 10:29:32;;;;;;;108.07;7.65;;;;;;;25.98;49.63;96394.50;2083999;28;20200;-64
2022/06/29 10:30:34;;;;;;;107.15;7.18;;;;;;;26.35;44.23;96395.72;2078404;28;20200;-64
2022/06/29 10:31:50;;;;;;;115.72;8.50;;;;;;;26.56;48.97;96397.81;2078564;28;20851;-64
2022/06/29 10:32:52;;;;;;;106.88;8.35;;;;;;;26.49;48.80;96388.81;2073503;28;20228;-64
2022/06/29 10:33:54;;;;;;;109.15;11.15;;;;;;;26.76;47.90;96394.72;2086102;28;20205;-64
2022/06/29 10:35:07;;;;;;;113.70;10.82;;;;;;;26.67;48.19;96393.06;2077944;28;20844;-64
2022/06/29 10:36:09;;;;;;;119.07;10.63;;;;;;;26.89;48.03;96400.34;2077877;28;20280;-64
2022/06/29 10:37:15;;;;;;;113.72;13.73;;;;;;;26.93;47.68;96398.13;2077419;28;20201;-64
2022/06/29 10:38:19;;;;;;;111.05;11.60;;;;;;;26.97;47.09;96404.81;2077397;28;20534;-64
2022/06/29 10:39:21;;;;;;;109.63;10.65;;;;;;;26.70;47.40;96396.22;2078366;28;20197;-64
2022/06/29 10:40:24;;;;;;;110.97;10.20;;;;;;;27.00;46.77;96392.91;2076454;28;20197;-64
2022/06/29 10:44:06;;;;;;;112.78;9.80;;;;;;;27.28;46.64;96392.34;2085763;28;20215;-64
2022/06/29 10:45:16;;;;;;;113.45;9.30;;;;;;;27.66;46.26;96395.91;2079085;28;20197;-64
2022/06/29 10:46:17;;;;;;;109.18;8.45;;;;;;;27.65;45.45;96399.59;2078432;28;20555;-64
2022/06/29 10:47:22;;;;;;;109.63;7.35;;;;;;;27.72;45.41;96391.66;2069070;28;20201;-64
2022/06/29 10:48:25;;;;;;;105.72;7.35;;;;;;;27.83;45.78;96390.38;2085944;28;20243;-64
2022/06/29 10:49:26;;;;;;;105.30;7.50;;;;;;;27.75;45.17;96393.16;2084147;28;20189;-64
2022/06/29 10:50:28;;;;;;;109.22;6.10;;;;;;;28.24;44.24;96386.41;2078498;28;20193;-64
2022/06/29 10:51:30;;;;;;;106.25;7.07;;;;;;;27.99;45.21;96389.38;2078475;28;20665;-64
2022/06/29 10:52:34;;;;;;;107.65;6.47;;;;;;;27.59;46.00;96394.13;2071027;28;20240;-64
2022/06/29 10:53:35;;;;;;;107.07;6.60;;;;;;;27.88;44.78;96387.16;2085979;28;20251;-64
2022/06/29 10:54:36;;;;;;;104.82;6.65;;;;;;;28.08;44.61;96382.09;2083140;28;20197;-64
2022/06/29 10:55:43;;;;;;;106.75;7.53;;;;;;;27.86;43.95;96388.16;2076855;28;20649;-64
2022/06/29 10:56:45;;;;;;;106.80;7.50;;;;;;;27.49;45.00;96387.19;2077668;28;20201;-64
2022/06/29 10:57:47;;;;;;;115.15;6.63;;;;;;;27.16;45.43;96376.69;2077802;28;20216;-64
2022/06/29 10:58:48;;;;;;;109.30;9.95;;;;;;;26.83;45.52;96386.78;2078431;28;20212;-64
2022/06/29 10:59:49;;;;;;;105.70;5.50;;;;;;;26.68;46.59;96384.84;2078232;28;20198;-64
2022/06/29 11:00:53;;;;;;;107.70;5.70;;;;;;;26.61;47.40;96383.88;2078235;28;20208;-63
2022/06/29 11:02:08;;;;;;;142.18;26.42;;;;;;;26.50;48.14;96381.59;2078140;28;20205;-68
2022/06/29 11:03:23;;;;;;;120.47;13.98;;;;;;;26.39;48.23;96388.19;2075450;28;20314;-63
2022/06/29 11:04:25;;;;;;;107.15;7.25;;;;;;;26.23;47.61;96392.59;2083674;28;20196;-64
2022/06/29 11:05:26;;;;;;;106.38;6.32;;;;;;;26.40;47.96;96387.19;2078351;28;20726;-64
2022/06/29 11:12:03;;;;;;;113.30;8.85;;;;;;;26.44;47.88;96366.25;2077462;28;20197;-64
2022/06/29 11:13:05;;;;;;;107.45;8.70;;;;;;;26.19;48.09;96380.56;2074762;28;20715;-64
2022/06/29 11:15:39;;;;;;;109.60;7.82;;;;;;;25.95;48.58;96368.06;2085541;28;20308;-64
2022/06/29 11:15:41;;;;;;;115.43;9.20;;;;;;;26.36;47.89;96381.34;2078367;28;20200;-64
2022/06/29 11:16:43;;;;;;;106.20;9.75;;;;;;;26.35;48.22;96382.34;2077561;28;20204;-59
2022/06/29 11:17:47;;;;;;;109.15;9.15;;;;;;;26.36;48.62;96388.53;2077825;28;20642;-60
2022/06/29 11:18:55;;;;;;;108.28;9.50;;;;;;;26.21;48.30;96388.44;2078287;28;20197;-60
2022/06/29 11:19:56;;;;;;;107.30;9.45;;;;;;;26.20;48.93;96382.22;2077839;28;20201;-60
2022/06/29 11:21:03;;;;;;;103.93;6.90;;;;;;;25.75;50.34;96384.53;2077586;28;20204;-60
2022/06/29 11:22:17;;;;;;;107.38;7.80;;;;;;;25.89;50.19;96382.97;2077707;28;20267;-59
2022/06/29 11:23:24;;;;;;;107.88;8.40;;;;;;;26.11;49.96;96383.28;2077829;28;20213;-60
2022/06/29 11:24:26;;;;;;;106.25;7.93;;;;;;;25.78;50.60;96379.84;2078200;28;20194;-60
2022/06/29 11:25:35;;;;;;;109.68;9.82;;;;;;;25.99;50.60;96381.94;2078211;28;20196;-60
2022/06/29 11:26:36;;;;;;;108.18;7.30;;;;;;;26.04;49.81;96384.94;2078185;28;20576;-59
2022/06/29 11:27:38;;;;;;;106.22;7.65;;;;;;;26.28;49.78;96377.88;2071203;28;20754;-60
2022/06/29 11:28:42;;;;;;;112.93;11.30;;;;;;;26.32;48.96;96381.84;2085397;28;20205;-59
2022/06/29 11:29:43;;;;;;;108.65;8.07;;;;;;;25.99;49.63;96358.72;2082042;28;20206;-60
2022/06/29 11:31:04;;;;;;;106.53;6.70;;;;;;;26.56;49.06;96380.91;2078130;28;20651;-60
2022/06/29 11:32:06;;;;;;;106.70;6.82;;;;;;;26.44;48.43;96379.66;2077489;28;20204;-59
2022/06/29 11:33:10;;;;;;;108.95;7.47;;;;;;;26.52;49.47;96379.59;2072410;28;20255;-59
2022/06/29 11:34:13;;;;;;;109.20;7.40;;;;;;;26.62;48.75;96384.72;2079067;28;20212;-59
2022/06/29 11:35:21;;;;;;;110.85;9.43;;;;;;;26.77;47.83;96377.63;2073542;28;20198;-64
2022/06/29 11:36:28;;;;;;;107.70;8.38;;;;;;;26.89;48.20;96378.91;2073742;28;20221;-64
2022/06/29 11:37:30;;;;;;;104.63;6.43;;;;;;;26.79;48.29;96385.50;2072362;28;20204;-64
2022/06/29 11:38:32;;;;;;;110.90;6.30;;;;;;;26.77;48.45;96379.50;2071968;28;20226;-64
2022/06/29 11:39:33;;;;;;;110.75;8.95;;;;;;;26.70;48.34;96374.81;2072698;28;20214;-65
2022/06/29 11:40:36;;;;;;;106.75;8.93;;;;;;;26.76;48.20;96367.13;2072754;28;20645;-64
2022/06/29 11:43:03;;;;;;;107.28;9.50;;;;;;;26.86;47.86;96373.88;2068535;28;20217;-64
2022/06/29 11:44:08;;;;;;;109.28;9.05;;;;;;;27.21;45.94;96362.75;2080861;28;20242;-64
2022/06/29 11:45:09;;;;;;;106.97;8.15;;;;;;;27.05;45.97;96364.53;2073280;28;20202;-64
2022/06/29 11:46:22;;;;;;;110.60;8.95;;;;;;;27.27;46.25;96366.56;2072635;28;20207;-64
2022/06/29 11:47:27;;;;;;;109.63;8.70;;;;;;;27.28;46.63;96371.75;2064605;28;20209;-63
2022/06/29 11:48:31;;;;;;;109.45;10.48;;;;;;;27.73;45.79;96373.72;2080127;28;20239;-64
2022/06/29 11:49:40;;;;;;;108.32;8.85;;;;;;;27.89;45.27;96353.94;2079132;28;20212;-64
2022/06/29 11:50:53;;;;;;;109.80;8.27;;;;;;;28.18;44.35;96353.13;2072738;28;20201;-64
2022/06/29 11:51:58;;;;;;;109.25;7.90;;;;;;;28.15;44.47;96365.06;2074139;28;20237;-64
2022/06/29 11:53:00;;;;;;;105.60;7.25;;;;;;;28.37;44.24;96370.50;2067866;28;20229;-64
2022/06/29 11:54:06;;;;;;;108.05;7.18;;;;;;;28.63;42.58;96369.16;2079917;28;20193;-64
2022/06/29 11:55:07;;;;;;;107.03;6.60;;;;;;;28.22;44.50;96365.16;2073016;28;20228;-64
2022/06/29 11:56:14;;;;;;;105.63;6.32;;;;;;;27.79;44.12;96372.97;2073488;28;20202;-64
2022/06/29 11:57:18;;;;;;;107.60;7.80;;;;;;;28.10;43.82;96372.84;2075520;28;20323;-64
2022/06/29 11:58:21;;;;;;;105.82;6.47;;;;;;;27.70;44.31;96364.19;2072714;28;20201;-66
2022/06/29 11:59:23;;;;;;;104.57;6.70;;;;;;;28.15;44.06;96366.91;2072766;28;20252;-64
2022/06/29 12:00:24;;;;;;;106.43;6.65;;;;;;;27.84;43.89;96355.31;2072774;28;20194;-65
2022/06/29 12:01:27;;;;;;;109.85;9.30;;;;;;;27.98;44.76;96363.56;2071659;28;20701;-65
2022/06/29 12:02:34;;;;;;;111.55;10.45;;;;;;;28.30;44.10;96353.47;2068283;28;20221;-65
2022/06/29 12:03:37;;;;;;;140.45;26.85;;;;;;;28.25;44.49;96364.78;2076292;28;20193;-66
2022/06/29 12:04:40;;;;;;;107.72;10.10;;;;;;;28.61;43.93;96363.97;2076785;28;20197;-66
2022/06/29 12:05:59;;;;;;;108.25;7.85;;;;;;;28.55;44.45;96363.91;2071422;28;20224;-66
2022/06/29 12:07:02;;;;;;;108.28;8.30;;;;;;;29.29;43.16;96362.84;2071964;28;20552;-66
2022/06/29 12:08:04;;;;;;;111.00;7.05;;;;;;;28.96;42.08;96349.88;2067800;28;20621;-66
2022/06/29 12:09:05;;;;;;;106.57;7.20;;;;;;;29.19;42.34;96356.94;2080070;28;20216;-66
2022/06/29 12:10:07;;;;;;;108.00;7.30;;;;;;;29.28;42.74;96358.47;2072620;28;20202;-65
2022/06/29 12:11:08;;;;;;;110.25;7.28;;;;;;;29.01;42.06;96342.09;2072268;28;20201;-66
2022/06/29 12:12:12;;;;;;;110.75;7.30;;;;;;;29.15;42.75;96354.63;2072602;28;20201;-66
2022/06/29 12:13:13;;;;;;;105.53;7.50;;;;;;;28.74;42.53;96363.31;2063544;28;20221;-66
2022/06/29 12:14:14;;;;;;;108.70;7.43;;;;;;;28.44;42.58;96354.47;2071249;28;20296;-67
2022/06/29 12:15:17;;;;;;;107.35;6.97;;;;;;;28.92;42.49;96343.25;2072511;28;20205;-66
2022/06/29 12:16:18;;;;;;;108.93;7.55;;;;;;;28.73;43.68;96350.06;2072640;28;20190;-66
2022/06/29 12:17:20;;;;;;;109.35;7.13;;;;;;;29.33;42.78;96353.34;2071880;28;20256;-66
2022/06/29 12:18:21;;;;;;;105.68;6.22;;;;;;;29.98;40.84;96355.94;2072359;28;20197;-66
2022/06/29 12:19:23;;;;;;;109.10;8.13;;;;;;;30.01;40.17;96335.84;2072405;28;20770;-66
2022/06/29 12:20:25;;;;;;;109.82;12.50;;;;;;;29.92;40.36;96360.22;2071839;28;20930;-66
2022/06/29 12:21:38;;;;;;;113.10;15.32;;;;;;;29.37;41.23;96354.66;2072300;28;20934;-66
2022/06/29 12:22:39;;;;;;;111.57;16.20;;;;;;;29.65;40.55;96357.34;2065511;28;20255;-66
2022/06/29 12:23:41;;;;;;;109.37;10.70;;;;;;;28.86;41.00;96357.44;2079406;28;20529;-66
2022/06/29 12:24:43;;;;;;;114.33;17.10;;;;;;;28.64;41.96;96325.97;2076263;28;20468;-65
2022/06/29 12:25:44;;;;;;;118.20;10.97;;;;;;;28.93;40.89;96356.47;2072353;28;21235;-65
2022/06/29 12:26:46;;;;;;;111.20;10.33;;;;;;;29.04;40.70;96359.69;2072396;28;20754;-65
2022/06/29 12:27:48;;;;;;;112.83;14.93;;;;;;;29.34;40.43;96341.56;2066774;28;20469;-65
2022/06/29 12:28:50;;;;;;;113.13;18.67;;;;;;;29.55;40.23;96347.97;2079798;28;20426;-64
2022/06/29 12:29:51;;;;;;;115.07;21.50;;;;;;;30.32;38.88;96356.09;2075105;28;20439;-65
2022/06/29 12:30:53;;;;;;;113.17;21.30;;;;;;;30.84;38.27;96351.91;2070473;28;20439;-65
2022/06/29 12:31:54;;;;;;;108.13;12.37;;;;;;;31.39;37.03;96353.69;2072301;28;20794;-65
2022/06/29 12:32:56;;;;;;;104.90;6.80;;;;;;;31.71;36.69;96348.50;2067672;28;20462;-65
2022/06/29 12:33:58;;;;;;;106.20;4.17;;;;;;;31.56;36.14;96348.69;2079122;28;20438;-65
2022/06/29 12:35:19;;;;;;;107.40;4.13;;;;;;;30.69;37.44;96345.88;2071976;28;20542;-66
2022/06/29 12:36:20;;;;;;;103.37;4.70;;;;;;;30.15;38.82;96352.91;2072110;28;20461;-64
2022/06/29 12:37:22;;;;;;;105.33;5.00;;;;;;;30.25;38.86;96356.88;2071716;28;20724;-65
2022/06/29 12:38:24;;;;;;;102.80;4.60;;;;;;;29.62;39.79;96340.75;2072346;28;20423;-65
2022/06/29 12:39:25;;;;;;;102.47;4.20;;;;;;;30.02;38.60;96343.72;2072741;28;20432;-65
2022/06/29 12:40:29;;;;;;;104.47;6.53;;;;;;;30.29;38.59;96343.84;2072372;28;20428;-65
2022/06/29 12:41:31;;;;;;;104.07;4.57;;;;;;;30.02;38.90;96351.81;2072633;28;20427;-65
2022/06/29 12:42:33;;;;;;;108.97;3.90;;;;;;;29.81;39.45;96337.38;2065149;28;20994;-65
2022/06/29 12:43:35;;;;;;;102.57;3.53;;;;;;;29.88;38.53;96336.59;2079561;28;20427;-65
2022/06/29 12:44:36;;;;;;;104.03;4.40;;;;;;;29.65;37.99;96340.38;2076835;28;20498;-65
2022/06/29 12:45:37;;;;;;;107.80;5.00;;;;;;;28.89;38.47;96258.50;2071625;28;20427;-64
2022/06/29 12:46:39;;;;;;;104.77;4.90;;;;;;;28.76;38.84;96345.16;2072008;28;20427;-64
2022/06/29 12:47:40;;;;;;;104.77;4.20;;;;;;;29.14;39.02;96342.22;2061550;28;20518;-65
2022/06/29 12:48:42;;;;;;;103.60;3.80;;;;;;;29.93;38.25;96334.16;2079682;28;21176;-65